createdAt,value
2022-08-29T00:01:58.338Z,4.28
2022-08-29T00:04:45.900Z,4.60
2022-08-29T00:07:13.770Z,4.43
2022-08-29T00:09:41.235Z,4.05
2022-08-29T00:12:15.891Z,4.30
2022-08-29T00:14:43.482Z,3.85
2022-08-29T00:17:10.986Z,4.28
2022-08-29T00:19:44.902Z,4.22
2022-08-29T00:22:12.287Z,4.38
2022-08-29T00:24:39.764Z,3.72
2022-08-29T00:27:13.931Z,4.75
2022-08-29T00:29:41.441Z,4.10
2022-08-29T00:32:09.150Z,4.18
2022-08-29T00:34:42.907Z,3.78
2022-08-29T00:37:10.434Z,3.75
2022-08-29T00:39:38.175Z,3.67
2022-08-29T00:42:13.089Z,4.38
2022-08-29T00:44:40.534Z,4.28
2022-08-29T00:47:12.420Z,4.20
2022-08-29T00:49:53.936Z,3.95
2022-08-29T00:52:38.186Z,4.15
2022-08-29T00:55:18.921Z,3.80
2022-08-29T00:57:50.583Z,4.22
2022-08-29T01:00:18.714Z,4.45
2022-08-29T01:02:53.902Z,4.00
2022-08-29T01:05:36.348Z,3.83
2022-08-29T01:08:11.936Z,3.85
2022-08-29T01:10:58.015Z,3.70
2022-08-29T01:13:41.926Z,4.03
2022-08-29T01:16:10.950Z,4.72
2022-08-29T01:18:48.916Z,3.70
2022-08-29T01:21:22.395Z,3.70
2022-08-29T01:24:21.889Z,4.18
2022-08-29T01:26:49.461Z,4.03
2022-08-29T01:29:17.288Z,4.38
2022-08-29T01:31:56.626Z,4.10
2022-08-29T01:34:28.196Z,3.80
2022-08-29T01:37:07.930Z,4.38
2022-08-29T01:39:38.153Z,4.25
2022-08-29T01:42:16.922Z,3.75
2022-08-29T01:44:58.514Z,4.32
2022-08-29T01:47:36.934Z,3.53
2022-08-29T01:50:09.690Z,4.10
2022-08-29T01:52:43.977Z,4.28
2022-08-29T01:55:11.888Z,4.30
2022-08-29T01:57:40.122Z,3.97
2022-08-29T02:00:17.944Z,4.18
2022-08-29T02:02:45.440Z,4.20
2022-08-29T02:05:32.926Z,4.10
2022-08-29T02:08:00.634Z,4.47
2022-08-29T02:10:28.156Z,3.95
2022-08-29T02:13:01.942Z,3.95
2022-08-29T02:15:29.340Z,4.45
2022-08-29T02:17:57.027Z,4.57
2022-08-29T02:20:30.926Z,4.05
2022-08-29T02:22:59.283Z,3.97
2022-08-29T02:25:47.927Z,4.85
2022-08-29T02:28:17.361Z,4.43
2022-08-29T02:30:56.923Z,4.45
2022-08-29T02:33:25.727Z,4.38
2022-08-29T02:35:53.893Z,4.35
2022-08-29T02:38:27.954Z,4.28
2022-08-29T02:40:56.344Z,4.82
2022-08-29T02:43:24.419Z,4.80
2022-08-29T02:45:58.947Z,4.50
2022-08-29T02:48:26.560Z,4.53
2022-08-29T02:51:05.935Z,4.75
2022-08-29T02:53:34.043Z,4.82
2022-08-29T02:56:02.221Z,5.03
2022-08-29T02:58:35.998Z,4.82
2022-08-29T03:01:03.770Z,4.90
2022-08-29T03:03:32.383Z,4.80
2022-08-29T03:06:05.958Z,4.50
2022-08-29T03:08:40.785Z,5.03
2022-08-29T03:11:16.057Z,4.65
2022-08-29T03:13:45.005Z,5.13
2022-08-29T03:16:13.832Z,4.97
2022-08-29T03:18:47.979Z,5.45
2022-08-29T03:21:20.995Z,5.40
2022-08-29T03:23:56.985Z,5.40
2022-08-29T03:26:25.683Z,5.28
2022-08-29T03:28:53.337Z,5.25
2022-08-29T03:31:28.015Z,5.03
2022-08-29T03:33:56.729Z,5.63
2022-08-29T03:36:27.089Z,5.45
2022-08-29T03:39:00.951Z,5.45
2022-08-29T03:41:29.706Z,4.82
2022-08-29T03:43:58.945Z,5.28
2022-08-29T03:46:34.983Z,5.25
2022-08-29T03:49:03.608Z,5.80
2022-08-29T03:51:31.750Z,5.10
2022-08-29T03:54:05.941Z,5.45
2022-08-29T03:56:33.597Z,5.28
2022-08-29T03:59:00.968Z,5.50
2022-08-29T04:01:36.158Z,5.25
2022-08-29T04:04:30.986Z,5.45
2022-08-29T04:07:12.975Z,5.25
2022-08-29T04:09:40.996Z,6.00
2022-08-29T04:12:20.017Z,6.00
2022-08-29T04:14:47.456Z,5.93
2022-08-29T04:17:14.847Z,6.38
2022-08-29T04:19:48.996Z,6.38
2022-08-29T04:22:16.392Z,6.10
2022-08-29T04:24:43.930Z,6.53
2022-08-29T04:27:17.989Z,6.63
2022-08-29T04:29:48.398Z,6.45
2022-08-29T04:32:25.958Z,6.20
2022-08-29T04:34:57.454Z,6.07
2022-08-29T04:37:25.082Z,6.57
2022-08-29T04:39:59.041Z,6.80
2022-08-29T04:42:26.557Z,7.30
2022-08-29T04:44:54.082Z,6.55
2022-08-29T04:47:28.983Z,6.75
2022-08-29T04:49:56.977Z,7.13
2022-08-29T04:52:26.486Z,7.60
2022-08-29T04:55:00.989Z,7.47
2022-08-29T04:57:28.380Z,7.38
2022-08-29T04:59:58.851Z,8.10
2022-08-29T05:02:34.055Z,8.20
2022-08-29T05:05:08.090Z,7.88
2022-08-29T05:07:49.001Z,8.25
2022-08-29T05:10:20.052Z,8.13
2022-08-29T05:12:48.307Z,7.55
2022-08-29T05:15:23.012Z,7.68
2022-08-29T05:17:50.591Z,7.57
2022-08-29T05:20:18.034Z,7.32
2022-08-29T05:22:52.056Z,7.20
2022-08-29T05:25:19.684Z,7.55
2022-08-29T05:27:47.108Z,7.53
2022-08-29T05:30:34.619Z,7.32
2022-08-29T05:33:03.181Z,7.18
2022-08-29T05:35:37.008Z,7.18
2022-08-29T05:38:09.042Z,6.90
2022-08-29T05:40:44.184Z,5.60
2022-08-29T05:43:19.208Z,5.50
2022-08-29T05:45:54.052Z,5.15
2022-08-29T05:48:21.476Z,4.50
2022-08-29T05:50:48.920Z,5.22
2022-08-29T05:53:26.002Z,5.00
2022-08-29T05:55:53.998Z,5.47
2022-08-29T05:58:21.518Z,4.75
2022-08-29T06:01:11.033Z,4.93
2022-08-29T06:03:46.147Z,6.00
2022-08-29T06:06:27.057Z,5.60
2022-08-29T06:08:55.456Z,6.60
2022-08-29T06:11:26.259Z,5.75
2022-08-29T06:14:01.115Z,6.28
2022-08-29T06:16:30.253Z,6.00
2022-08-29T06:18:58.164Z,7.55
2022-08-29T06:21:31.999Z,6.78
2022-08-29T06:23:59.638Z,6.78
2022-08-29T06:26:27.574Z,8.10
2022-08-29T06:29:01.016Z,6.50
2022-08-29T06:31:30.074Z,6.88
2022-08-29T06:33:59.555Z,7.25
2022-08-29T06:36:34.043Z,7.32
2022-08-29T06:39:08.324Z,6.45
2022-08-29T06:41:44.015Z,6.45
2022-08-29T06:44:12.156Z,6.65
2022-08-29T06:46:54.108Z,6.25
2022-08-29T06:49:22.106Z,6.07
2022-08-29T06:51:56.970Z,5.68
2022-08-29T06:54:33.130Z,5.53
2022-08-29T06:57:00.816Z,6.15
2022-08-29T06:59:28.433Z,6.32
2022-08-29T07:02:02.152Z,6.05
2022-08-29T07:04:50.093Z,6.53
2022-08-29T07:07:27.047Z,6.45
2022-08-29T07:09:54.662Z,5.88
2022-08-29T07:12:23.184Z,5.93
2022-08-29T07:15:01.189Z,5.80
2022-08-29T07:17:29.770Z,6.15
2022-08-29T07:19:57.229Z,6.35
2022-08-29T07:22:33.014Z,5.60
2022-08-29T07:25:00.431Z,6.53
2022-08-29T07:27:28.062Z,5.75
2022-08-29T07:30:02.134Z,5.50
2022-08-29T07:32:29.999Z,5.93
2022-08-29T07:34:58.067Z,5.97
2022-08-29T07:37:32.113Z,5.43
2022-08-29T07:39:59.579Z,6.13
2022-08-29T07:42:27.960Z,5.97
2022-08-29T07:45:02.076Z,5.55
2022-08-29T07:47:29.649Z,6.30
2022-08-29T07:49:59.529Z,5.32
2022-08-29T07:52:36.087Z,5.13
2022-08-29T07:55:05.057Z,5.30
2022-08-29T07:57:33.523Z,4.60
2022-08-29T08:00:13.134Z,5.72
2022-08-29T08:02:40.805Z,5.30
2022-08-29T08:05:22.077Z,5.40
2022-08-29T08:07:55.383Z,5.53
2022-08-29T08:10:30.078Z,5.80
2022-08-29T08:12:57.545Z,5.75
2022-08-29T08:15:25.264Z,4.63
2022-08-29T08:17:59.082Z,4.82
2022-08-29T08:20:26.765Z,4.95
2022-08-29T08:22:55.661Z,5.43
2022-08-29T08:25:30.044Z,5.00
2022-08-29T08:27:58.900Z,5.47
2022-08-29T08:30:26.405Z,5.25
2022-08-29T08:33:00.360Z,4.88
2022-08-29T08:35:27.809Z,5.40
2022-08-29T08:37:56.324Z,4.55
2022-08-29T08:40:37.179Z,4.63
2022-08-29T08:43:07.985Z,4.47
2022-08-29T08:45:49.123Z,4.78
2022-08-29T08:48:34.496Z,4.68
2022-08-29T08:51:25.378Z,4.43
2022-08-29T08:53:56.853Z,4.80
2022-08-29T08:56:49.207Z,4.93
2022-08-29T08:59:28.664Z,4.47
2022-08-29T09:02:08.108Z,5.20
2022-08-29T09:04:59.917Z,4.60
2022-08-29T09:08:12.337Z,4.68
2022-08-29T09:11:18.115Z,4.55
2022-08-29T09:14:17.127Z,4.80
2022-08-29T09:16:49.418Z,4.75
2022-08-29T09:19:24.088Z,4.75
2022-08-29T09:21:55.488Z,5.00
2022-08-29T09:24:35.135Z,4.30
2022-08-29T09:27:02.897Z,4.57
2022-08-29T09:29:32.126Z,4.25
2022-08-29T09:32:22.542Z,4.30
2022-08-29T09:35:08.043Z,4.28
2022-08-29T09:37:43.120Z,5.32
2022-08-29T09:40:16.778Z,4.70
2022-08-29T09:43:06.119Z,4.50
2022-08-29T09:45:34.042Z,4.60
2022-08-29T09:48:24.197Z,4.63
2022-08-29T09:50:51.753Z,4.35
2022-08-29T09:53:25.116Z,4.30
2022-08-29T09:56:00.276Z,5.32
2022-08-29T09:58:36.214Z,4.40
2022-08-29T10:01:28.199Z,4.38
2022-08-29T10:04:03.505Z,4.30
2022-08-29T10:06:52.050Z,4.30
2022-08-29T10:09:28.595Z,5.05
2022-08-29T10:12:19.113Z,4.72
2022-08-29T10:14:51.578Z,4.30
2022-08-29T10:18:07.117Z,4.60
2022-08-29T10:21:15.980Z,4.30
2022-08-29T10:24:14.706Z,4.68
2022-08-29T10:26:50.727Z,5.10
2022-08-29T10:29:43.111Z,4.40
2022-08-29T10:32:31.730Z,4.45
2022-08-29T10:35:21.117Z,3.97
2022-08-29T10:38:13.808Z,4.15
2022-08-29T10:41:01.092Z,4.68
2022-08-29T10:43:44.817Z,4.38
2022-08-29T10:46:47.181Z,4.90
2022-08-29T10:49:44.844Z,4.57
2022-08-29T10:52:44.374Z,5.03
2022-08-29T10:55:30.487Z,4.80
2022-08-29T10:58:13.128Z,4.43
2022-08-29T11:01:04.295Z,4.15
2022-08-29T11:04:02.159Z,4.10
2022-08-29T11:06:48.234Z,4.35
2022-08-29T11:09:37.134Z,4.07
2022-08-29T11:12:41.696Z,4.47
2022-08-29T11:15:33.139Z,4.72
2022-08-29T11:18:25.797Z,4.50
2022-08-29T11:21:07.131Z,4.53
2022-08-29T11:23:45.083Z,4.50
2022-08-29T11:26:50.258Z,4.57
2022-08-29T11:29:20.686Z,4.88
2022-08-29T11:32:25.150Z,4.82
2022-08-29T11:35:32.057Z,5.10
2022-08-29T11:38:24.183Z,5.45
2022-08-29T11:41:28.687Z,4.38
2022-08-29T11:44:37.135Z,4.10
2022-08-29T11:47:37.679Z,4.30
2022-08-29T11:50:29.166Z,4.43
2022-08-29T11:53:16.807Z,4.50
2022-08-29T11:56:12.199Z,4.28
2022-08-29T11:58:43.173Z,4.63
2022-08-29T12:01:43.148Z,4.80
2022-08-29T12:04:31.051Z,4.13
2022-08-29T12:07:13.273Z,4.05
2022-08-29T12:09:51.805Z,4.40
2022-08-29T12:12:44.139Z,4.22
2022-08-29T12:15:30.220Z,4.40
2022-08-29T12:18:07.144Z,4.78
2022-08-29T12:20:41.993Z,3.78
2022-08-29T12:23:22.242Z,4.45
2022-08-29T12:26:21.029Z,5.07
2022-08-29T12:29:10.627Z,4.47
2022-08-29T12:32:23.470Z,5.15
2022-08-29T12:35:38.149Z,5.30
2022-08-29T12:38:28.355Z,5.25
2022-08-29T12:41:35.168Z,4.70
2022-08-29T12:44:08.614Z,5.07
2022-08-29T12:46:49.258Z,5.10
2022-08-29T12:49:48.588Z,4.85
2022-08-29T12:52:36.167Z,5.20
2022-08-29T12:55:21.261Z,4.60
2022-08-29T12:57:55.137Z,5.07
2022-08-29T13:00:27.642Z,4.70
2022-08-29T13:03:09.775Z,5.20
2022-08-29T13:05:50.275Z,4.47
2022-08-29T13:08:40.174Z,4.82
2022-08-29T13:11:10.849Z,4.78
2022-08-29T13:13:38.752Z,4.82
2022-08-29T13:16:15.201Z,4.28
2022-08-29T13:19:00.319Z,3.95
2022-08-29T13:21:40.207Z,4.30
2022-08-29T13:24:19.985Z,5.20
2022-08-29T13:27:16.237Z,4.85
2022-08-29T13:29:43.997Z,4.03
2022-08-29T13:32:30.229Z,4.93
2022-08-29T13:35:03.615Z,4.60
2022-08-29T13:37:49.264Z,4.18
2022-08-29T13:40:29.248Z,4.82
2022-08-29T13:43:04.251Z,4.82
2022-08-29T13:45:34.074Z,4.30
2022-08-29T13:48:27.186Z,4.15
2022-08-29T13:50:54.624Z,4.60
2022-08-29T13:53:23.419Z,4.60
2022-08-29T13:55:57.347Z,4.38
2022-08-29T13:58:26.894Z,4.40
2022-08-29T14:00:56.155Z,4.10
2022-08-29T14:03:32.537Z,4.40
2022-08-29T14:06:06.573Z,4.63
2022-08-29T14:08:47.183Z,4.57
2022-08-29T14:11:15.198Z,4.88
2022-08-29T14:13:42.995Z,4.57
2022-08-29T14:16:20.222Z,4.25
2022-08-29T14:18:50.001Z,4.20
2022-08-29T14:21:19.888Z,3.83
2022-08-29T14:23:55.190Z,4.20
2022-08-29T14:26:22.676Z,4.60
2022-08-29T14:28:50.189Z,4.18
2022-08-29T14:31:24.204Z,4.45
2022-08-29T14:33:51.823Z,4.45
2022-08-29T14:36:19.529Z,4.40
2022-08-29T14:39:00.217Z,4.68
2022-08-29T14:41:27.614Z,4.05
2022-08-29T14:43:55.133Z,4.85
2022-08-29T14:46:29.316Z,4.65
2022-08-29T14:48:56.997Z,4.10
2022-08-29T14:51:24.584Z,4.20
2022-08-29T14:54:00.267Z,4.50
2022-08-29T14:56:50.172Z,5.05
2022-08-29T14:59:29.361Z,4.45
2022-08-29T15:01:56.933Z,4.25
2022-08-29T15:04:36.282Z,4.18
2022-08-29T15:07:20.276Z,3.67
2022-08-29T15:09:54.317Z,4.07
2022-08-29T15:12:29.218Z,4.85
2022-08-29T15:14:57.354Z,4.13
2022-08-29T15:17:25.376Z,4.35
2022-08-29T15:20:34.905Z,3.95
2022-08-29T15:22:49.051Z,4.72
2022-08-29T15:25:23.288Z,3.90
2022-08-29T15:27:51.035Z,4.72
2022-08-29T15:30:31.186Z,4.72
2022-08-29T15:32:58.855Z,4.43
2022-08-29T15:35:26.928Z,3.63
2022-08-29T15:38:01.298Z,4.05
2022-08-29T15:40:28.906Z,4.22
2022-08-29T15:42:56.480Z,4.00
2022-08-29T15:45:30.224Z,3.78
2022-08-29T15:48:01.639Z,4.50
2022-08-29T15:50:38.319Z,4.45
2022-08-29T15:53:05.879Z,4.22
2022-08-29T15:55:33.344Z,3.90
2022-08-29T15:58:07.418Z,3.75
2022-08-29T16:00:34.921Z,3.90
2022-08-29T16:03:03.780Z,4.38
2022-08-29T16:05:38.257Z,3.95
2022-08-29T16:08:05.905Z,4.32
2022-08-29T16:10:33.643Z,4.00
2022-08-29T16:13:08.269Z,4.40
2022-08-29T16:15:35.973Z,4.40
2022-08-29T16:18:04.460Z,4.32
2022-08-29T16:20:41.636Z,3.83
2022-08-29T16:23:09.473Z,4.00
2022-08-29T16:25:37.039Z,4.28
2022-08-29T16:28:11.306Z,4.03
2022-08-29T16:30:44.384Z,4.25
2022-08-29T16:33:20.330Z,3.63
2022-08-29T16:35:47.799Z,4.00
2022-08-29T16:38:15.793Z,3.70
2022-08-29T16:40:50.391Z,4.35
2022-08-29T16:43:18.325Z,4.22
2022-08-29T16:45:46.135Z,4.20
2022-08-29T16:48:20.584Z,4.00
2022-08-29T16:50:48.144Z,3.70
2022-08-29T16:53:15.604Z,4.25
2022-08-29T16:55:49.354Z,4.15
2022-08-29T16:58:35.926Z,4.20
2022-08-29T17:01:10.279Z,4.50
2022-08-29T17:03:37.801Z,3.95
2022-08-29T17:06:25.247Z,4.00
2022-08-29T17:08:52.969Z,3.78
2022-08-29T17:11:20.642Z,4.13
2022-08-29T17:13:54.327Z,4.05
2022-08-29T17:16:22.211Z,5.22
2022-08-29T17:18:50.163Z,4.00
2022-08-29T17:21:24.233Z,3.92
2022-08-29T17:23:51.666Z,3.58
2022-08-29T17:26:21.653Z,3.92
2022-08-29T17:28:55.304Z,4.30
2022-08-29T17:31:23.780Z,4.53
2022-08-29T17:33:51.847Z,4.35
2022-08-29T17:36:26.329Z,4.32
2022-08-29T17:38:53.781Z,4.22
2022-08-29T17:41:23.310Z,3.97
2022-08-29T17:43:57.259Z,4.15
2022-08-29T17:46:25.127Z,4.15
2022-08-29T17:48:52.703Z,4.20
2022-08-29T17:51:26.258Z,4.00
2022-08-29T17:53:54.451Z,4.38
2022-08-29T17:56:36.297Z,4.05
2022-08-29T17:59:05.916Z,4.43
2022-08-29T18:01:35.778Z,3.95
2022-08-29T18:04:10.452Z,4.50
2022-08-29T18:06:58.615Z,4.30
2022-08-29T18:09:33.314Z,4.65
2022-08-29T18:12:00.833Z,4.68
2022-08-29T18:14:28.553Z,4.22
2022-08-29T18:17:03.388Z,4.00
2022-08-29T18:19:30.982Z,4.47
2022-08-29T18:21:58.734Z,4.43
2022-08-29T18:24:33.266Z,4.57
2022-08-29T18:27:00.921Z,4.18
2022-08-29T18:29:28.354Z,4.50
2022-08-29T18:32:02.294Z,4.28
2022-08-29T18:34:30.107Z,4.50
2022-08-29T18:36:57.832Z,4.43
2022-08-29T18:39:32.293Z,3.70
2022-08-29T18:42:01.054Z,4.30
2022-08-29T18:44:28.604Z,4.50
2022-08-29T18:47:03.707Z,4.55
2022-08-29T18:49:49.797Z,4.35
2022-08-29T18:52:24.273Z,4.13
2022-08-29T18:54:51.868Z,4.22
2022-08-29T18:57:22.363Z,4.25
2022-08-29T18:59:56.646Z,4.20
2022-08-29T19:02:24.353Z,4.10
2022-08-29T19:04:52.529Z,4.18
2022-08-29T19:07:26.321Z,4.13
2022-08-29T19:09:54.235Z,4.30
2022-08-29T19:12:21.777Z,4.60
2022-08-29T19:14:55.391Z,4.40
2022-08-29T19:17:22.898Z,4.22
2022-08-29T19:20:15.369Z,4.40
2022-08-29T19:22:42.921Z,3.97
2022-08-29T19:25:11.413Z,4.20
2022-08-29T19:27:45.330Z,3.85
2022-08-29T19:30:15.685Z,3.78
2022-08-29T19:32:43.610Z,4.28
2022-08-29T19:35:19.380Z,3.90
2022-08-29T19:37:47.403Z,4.68
2022-08-29T19:40:17.660Z,4.20
2022-08-29T19:42:52.294Z,3.85
2022-08-29T19:45:20.725Z,3.90
2022-08-29T19:47:49.513Z,4.07
2022-08-29T19:50:30.454Z,3.70
2022-08-29T19:53:11.651Z,3.88
2022-08-29T19:55:46.316Z,3.70
2022-08-29T19:58:14.574Z,3.80
2022-08-29T20:00:43.590Z,4.07
2022-08-29T20:03:17.524Z,3.63
2022-08-29T20:05:45.106Z,3.40
2022-08-29T20:08:26.377Z,3.30
2022-08-29T20:10:57.221Z,4.07
2022-08-29T20:13:24.780Z,3.70
2022-08-29T20:16:00.477Z,3.72
2022-08-29T20:18:28.068Z,3.38
2022-08-29T20:20:55.555Z,3.60
2022-08-29T20:23:29.409Z,3.60
2022-08-29T20:25:59.182Z,3.80
2022-08-29T20:28:28.092Z,3.90
2022-08-29T20:31:02.448Z,3.63
2022-08-29T20:33:29.957Z,3.22
2022-08-29T20:36:23.310Z,3.70
2022-08-29T20:38:50.772Z,4.03
2022-08-29T20:41:21.189Z,3.88
2022-08-29T20:43:55.321Z,3.58
2022-08-29T20:46:25.490Z,3.55
2022-08-29T20:48:52.999Z,3.50
2022-08-29T20:51:30.350Z,3.33
2022-08-29T20:53:59.040Z,3.72
2022-08-29T20:56:26.514Z,3.50
2022-08-29T20:59:00.410Z,3.47
2022-08-29T21:01:27.884Z,3.58
2022-08-29T21:04:21.029Z,3.75
2022-08-29T21:06:59.501Z,3.45
2022-08-29T21:09:34.313Z,3.28
2022-08-29T21:12:02.065Z,3.30
2022-08-29T21:14:29.522Z,3.60
2022-08-29T21:17:04.413Z,3.05
2022-08-29T21:19:32.120Z,3.30
2022-08-29T21:22:01.654Z,3.83
2022-08-29T21:24:40.449Z,3.72
2022-08-29T21:27:07.880Z,3.50
2022-08-29T21:29:35.920Z,3.72
2022-08-29T21:32:10.320Z,3.50
2022-08-29T21:34:37.731Z,3.45
2022-08-29T21:37:05.650Z,3.33
2022-08-29T21:39:39.305Z,3.65
2022-08-29T21:42:08.080Z,3.60
2022-08-29T21:44:36.366Z,3.50
2022-08-29T21:47:12.031Z,3.70
2022-08-29T21:49:41.184Z,3.65
2022-08-29T21:52:09.488Z,3.10
2022-08-29T21:54:43.357Z,3.38
2022-08-29T21:57:18.962Z,4.25
2022-08-29T21:59:54.330Z,3.22
2022-08-29T22:02:21.894Z,3.33
2022-08-29T22:04:49.379Z,3.42
2022-08-29T22:07:23.296Z,3.65
2022-08-29T22:09:57.419Z,3.70
2022-08-29T22:12:31.321Z,3.70
2022-08-29T22:15:17.297Z,3.60
2022-08-29T22:17:51.323Z,3.85
2022-08-29T22:20:19.443Z,3.92
2022-08-29T22:22:47.193Z,3.75
2022-08-29T22:25:21.355Z,3.70
2022-08-29T22:27:49.049Z,3.97
2022-08-29T22:30:17.226Z,3.72
2022-08-29T22:32:52.938Z,3.75
2022-08-29T22:35:24.260Z,3.72
2022-08-29T22:37:58.325Z,3.25
2022-08-29T22:40:26.215Z,3.40
2022-08-29T22:42:53.974Z,3.75
2022-08-29T22:45:29.028Z,3.83
2022-08-29T22:47:56.631Z,3.80
2022-08-29T22:50:27.936Z,3.90
2022-08-29T22:53:04.341Z,3.45
2022-08-29T22:55:32.484Z,3.83
2022-08-29T22:58:00.627Z,3.72
2022-08-29T23:00:37.434Z,3.90
2022-08-29T23:03:04.978Z,3.95
2022-08-29T23:05:32.568Z,3.83
2022-08-29T23:08:06.350Z,3.53
2022-08-29T23:10:36.793Z,3.55
2022-08-29T23:13:06.389Z,3.75
2022-08-29T23:15:40.453Z,3.78
2022-08-29T23:18:10.291Z,4.05
2022-08-29T23:20:47.386Z,4.00
2022-08-29T23:23:18.172Z,3.95
2022-08-29T23:25:45.995Z,4.38
2022-08-29T23:28:20.420Z,4.38
2022-08-29T23:30:48.808Z,4.35
2022-08-29T23:33:17.470Z,3.60
2022-08-29T23:35:51.398Z,4.32
2022-08-29T23:38:19.251Z,4.18
2022-08-29T23:40:46.826Z,4.60
2022-08-29T23:43:20.337Z,4.40
2022-08-29T23:45:49.056Z,4.50
2022-08-29T23:48:16.614Z,4.05
2022-08-29T23:50:51.375Z,3.95
2022-08-29T23:53:19.197Z,4.43
2022-08-29T23:55:47.268Z,5.00
2022-08-29T23:58:21.376Z,5.05
